Time;durP1;ratioP1;P1;durP2;ratioP2;P2;SDS_P1;SDS_P2;PMS_P1;PMS_P2;Temp;Humidity;BMP_temperature;BMP_pressure;BME280_temperature;BME280_humidity;BME280_pressure;Samples;Min_cycle;Max_cycle;Signal;HPM_P1;HPM_P2
2023/09/13 00:00:48;;;;;;;89.97;40.17;;;16.90;99.90;;;15.97;100.00;100830.66;4944991;28;20031;-77
2023/09/13 00:03:13;;;;;;;100.28;40.38;;;16.90;99.90;;;15.88;100.00;100820.66;4960085;28;21862;-77
2023/09/13 00:05:46;;;;;;;85.30;38.13;;;16.90;99.90;;;15.85;100.00;100818.19;4958568;28;20038;-77
2023/09/13 00:08:12;;;;;;;77.80;36.45;;;16.80;99.90;;;15.87;100.00;100820.78;4958462;28;20046;-77
2023/09/13 00:10:37;;;;;;;70.07;35.45;;;16.80;99.90;;;15.92;100.00;100821.31;4965568;28;20482;-78
2023/09/13 00:13:03;;;;;;;85.43;34.53;;;16.90;99.90;;;15.94;100.00;100816.75;4962195;28;20038;-77
2023/09/13 00:15:29;;;;;;;55.80;27.25;;;16.80;99.90;;;15.74;100.00;100810.13;4945827;28;20038;-77
2023/09/13 00:17:54;;;;;;;74.95;32.17;;;16.70;99.90;;;15.64;100.00;100816.97;4960157;28;20058;-77
2023/09/13 00:20:20;;;;;;;68.75;23.80;;;16.60;99.90;;;15.56;100.00;100812.16;4960698;28;20035;-77
2023/09/13 00:22:46;;;;;;;182.93;23.20;;;16.50;99.90;;;15.46;100.00;100813.72;4962522;28;20043;-77
2023/09/13 00:25:12;;;;;;;21.95;13.63;;;16.50;99.90;;;15.42;100.00;100813.09;4962106;28;20035;-77
2023/09/13 00:27:37;;;;;;;20.30;14.95;;;16.40;99.90;;;15.41;100.00;100813.19;4946253;28;20514;-77
2023/09/13 00:30:06;;;;;;;57.60;26.88;;;16.40;99.90;;;15.38;100.00;100812.44;4958518;28;20031;-77
2023/09/13 00:32:32;;;;;;;46.25;23.73;;;16.30;99.90;;;15.36;100.00;100819.63;4960497;28;20043;-77
2023/09/13 00:34:58;;;;;;;68.50;29.42;;;16.30;99.90;;;15.32;100.00;100820.78;4947587;28;21137;-77
2023/09/13 00:37:23;;;;;;;51.20;27.10;;;16.30;99.90;;;15.35;100.00;100817.06;4944939;28;20740;-78
2023/09/13 00:39:49;;;;;;;35.67;22.45;;;16.30;99.90;;;15.39;100.00;100824.72;4961572;28;20059;-77
2023/09/13 00:42:15;;;;;;;29.58;19.55;;;16.30;99.90;;;15.42;100.00;100825.47;4958663;28;20033;-77
2023/09/13 00:44:41;;;;;;;84.10;26.48;;;16.30;99.90;;;15.45;100.00;100825.31;4962699;28;20114;-77
2023/09/13 00:47:07;;;;;;;46.90;22.63;;;16.30;99.90;;;15.47;100.00;100815.44;4964953;28;20034;-77
2023/09/13 00:49:33;;;;;;;33.60;21.05;;;16.40;99.90;;;15.45;100.00;100823.50;4946830;28;20118;-77
2023/09/13 00:52:00;;;;;;;27.60;18.45;;;16.40;99.90;;;15.43;100.00;100820.09;4961345;28;20079;-77
2023/09/13 00:54:26;;;;;;;26.80;17.48;;;16.30;99.90;;;15.42;100.00;100814.88;4958556;28;20455;-77
2023/09/13 00:56:52;;;;;;;51.22;25.95;;;16.30;99.90;;;15.41;100.00;100813.19;4963820;28;20043;-77
2023/09/13 00:59:18;;;;;;;47.75;26.42;;;16.30;99.90;;;15.38;100.00;100809.78;4967148;28;20058;-77
2023/09/13 01:01:44;;;;;;;48.28;25.42;;;16.30;99.90;;;15.38;100.00;100815.09;4964493;28;20090;-77
2023/09/13 01:04:10;;;;;;;59.13;29.35;;;16.30;99.90;;;15.33;100.00;100805.72;4963385;28;20043;-77
2023/09/13 01:06:37;;;;;;;48.35;25.38;;;16.20;99.90;;;15.21;100.00;100803.88;4962256;28;20473;-77
2023/09/13 01:09:04;;;;;;;60.35;28.40;;;16.20;99.90;;;15.21;100.00;100791.47;4965695;28;20440;-77
2023/09/13 01:11:30;;;;;;;53.60;28.02;;;16.20;99.90;;;15.20;100.00;100796.84;4967652;28;20043;-77
2023/09/13 01:13:55;;;;;;;59.58;29.65;;;16.20;99.90;;;15.19;100.00;100793.34;4963191;28;20031;-77
2023/09/13 01:16:48;;;;;;;61.15;31.80;;;16.10;99.90;;;15.21;100.00;100793.25;4963881;28;20107;-77
2023/09/13 01:19:42;;;;;;;64.30;32.55;;;16.20;99.90;;;15.28;100.00;100786.59;4963810;28;20031;-77
2023/09/13 01:22:32;;;;;;;72.18;34.80;;;16.20;99.90;;;15.34;100.00;100789.69;4966651;28;20485;-78
2023/09/13 01:25:36;;;;;;;83.90;37.40;;;16.30;99.90;;;15.39;100.00;100787.59;4967335;28;20087;-76
2023/09/13 01:28:24;;;;;;;113.03;41.17;;;16.30;99.90;;;15.43;100.00;100790.06;4962608;28;20523;-76
2023/09/13 01:30:50;;;;;;;114.32;42.38;;;16.40;99.90;;;15.42;100.00;100797.16;4961192;28;20485;-77
2023/09/13 01:33:16;;;;;;;68.13;33.67;;;16.40;99.90;;;15.48;100.00;100801.19;4967128;28;20034;-78
2023/09/13 01:35:41;;;;;;;45.17;24.92;;;16.40;99.90;;;15.49;100.00;100808.22;4965509;28;20424;-77
2023/09/13 01:38:07;;;;;;;28.88;19.77;;;16.40;99.90;;;15.47;100.00;100812.78;4964658;28;20070;-77
2023/09/13 01:40:37;;;;;;;72.82;34.70;;;16.40;99.90;;;15.48;100.00;100814.47;4944313;28;20047;-77
2023/09/13 01:43:04;;;;;;;104.43;38.42;;;16.40;99.90;;;15.47;100.00;100800.34;4961592;28;20768;-77
2023/09/13 01:45:34;;;;;;;75.80;35.47;;;16.40;99.90;;;15.44;100.00;100789.09;4967754;28;20026;-77
2023/09/13 01:48:03;;;;;;;88.07;37.58;;;16.40;99.90;;;15.46;100.00;100788.03;4964631;28;20477;-77
2023/09/13 01:50:30;;;;;;;109.90;42.15;;;16.40;99.90;;;15.48;100.00;100790.59;4954867;28;20630;-77
2023/09/13 01:52:56;;;;;;;91.82;38.95;;;16.40;99.90;;;15.54;100.00;100795.50;4961504;28;20035;-76
2023/09/13 01:55:22;;;;;;;119.95;44.13;;;16.50;99.90;;;15.58;100.00;100794.34;4964550;28;20405;-77
2023/09/13 01:57:48;;;;;;;68.65;35.05;;;16.50;99.90;;;15.61;100.00;100791.47;4966325;28;20039;-77
2023/09/13 02:00:14;;;;;;;90.38;37.60;;;16.50;99.90;;;15.64;100.00;100793.94;4964720;28;20081;-77
2023/09/13 02:02:40;;;;;;;73.07;32.92;;;16.50;99.90;;;15.61;100.00;100780.84;4963618;28;20062;-77
2023/09/13 02:05:06;;;;;;;63.20;31.80;;;16.50;99.90;;;15.60;100.00;100779.16;4961355;28;20031;-77
2023/09/13 02:07:32;;;;;;;82.15;37.17;;;16.50;99.90;;;15.66;100.00;100780.53;4948273;28;20484;-77
2023/09/13 02:09:58;;;;;;;68.30;33.08;;;16.60;99.90;;;15.68;100.00;100787.47;4951140;28;20041;-78
2023/09/13 02:12:23;;;;;;;99.07;38.70;;;16.60;99.90;;;15.64;100.00;100774.50;4960402;28;20027;-76
2023/09/13 02:14:49;;;;;;;154.90;42.67;;;16.60;99.90;;;15.67;100.00;100758.38;4953458;28;20038;-77
2023/09/13 02:17:17;;;;;;;231.73;53.25;;;16.70;99.90;;;15.76;100.00;100763.94;4952685;28;20516;-77
2023/09/13 02:19:42;;;;;;;271.92;53.33;;;16.70;99.90;;;15.89;100.00;100758.63;4965321;28;20022;-77
2023/09/13 02:22:08;;;;;;;727.67;81.72;;;16.80;99.90;;;16.02;100.00;100752.50;4966355;28;20067;-77
2023/09/13 02:24:34;;;;;;;181.52;46.88;;;16.90;99.90;;;16.10;100.00;100740.38;4955048;28;20470;-77
2023/09/13 02:26:59;;;;;;;723.97;69.00;;;17.00;99.90;;;16.17;100.00;100731.00;4961773;28;20027;-78
2023/09/13 02:29:26;;;;;;;243.50;48.30;;;17.00;99.90;;;16.23;100.00;100734.22;4961539;28;20042;-77
2023/09/13 02:31:52;;;;;;;468.02;51.50;;;17.10;99.90;;;16.28;100.00;100732.91;4965438;28;20035;-77
2023/09/13 02:34:17;;;;;;;278.23;49.60;;;17.10;99.90;;;16.34;100.00;100731.66;4965771;28;20031;-77
2023/09/13 02:36:45;;;;;;;670.40;66.90;;;17.20;99.90;;;16.41;100.00;100730.25;4961462;28;20485;-77
2023/09/13 02:39:35;;;;;;;236.70;45.47;;;17.30;99.90;;;16.47;100.00;100736.94;4942512;28;20030;-77
2023/09/13 02:42:06;;;;;;;103.45;39.65;;;17.30;99.90;;;16.51;100.00;100718.00;4962083;28;20031;-77
2023/09/13 02:44:32;;;;;;;217.85;42.20;;;17.40;99.90;;;16.58;100.00;100718.41;4966221;28;20038;-76
2023/09/13 02:46:59;;;;;;;660.80;62.25;;;17.50;99.90;;;16.66;100.00;100709.91;4962262;28;20043;-77
2023/09/13 02:49:25;;;;;;;353.83;44.88;;;17.50;99.90;;;16.73;100.00;100716.47;4961724;28;20070;-77
2023/09/13 02:51:52;;;;;;;794.92;67.05;;;17.60;99.90;;;16.79;100.00;100714.19;4962170;28;20062;-76
2023/09/13 02:54:18;;;;;;;879.30;72.90;;;17.60;99.90;;;16.85;100.00;100710.28;4962677;28;20113;-77
2023/09/13 02:56:45;;;;;;;784.90;64.03;;;17.70;99.90;;;16.90;100.00;100701.97;4965632;28;20030;-77
2023/09/13 02:59:11;;;;;;;702.38;58.78;;;17.80;99.90;;;16.95;100.00;100711.31;4949618;28;20041;-76
2023/09/13 03:01:37;;;;;;;693.00;57.17;;;17.80;99.90;;;16.98;100.00;100723.53;4952975;28;20038;-77
2023/09/13 03:04:03;;;;;;;410.30;45.47;;;17.80;99.90;;;17.02;100.00;100744.47;4950475;28;20058;-77
2023/09/13 03:06:29;;;;;;;407.38;48.85;;;17.90;99.90;;;17.10;100.00;100769.66;4965080;28;20147;-77
2023/09/13 03:08:56;;;;;;;353.98;44.35;;;17.90;99.90;;;17.16;100.00;100809.13;4963985;28;20109;-77
2023/09/13 03:11:21;;;;;;;290.20;49.38;;;18.00;99.90;;;17.20;100.00;100834.53;4964754;28;20031;-76
2023/09/13 03:13:47;;;;;;;343.95;59.75;;;18.10;99.90;;;17.17;100.00;100845.38;4961859;28;20122;-76
2023/09/13 03:16:20;;;;;;;182.38;55.88;;;18.10;99.90;;;17.16;100.00;100851.69;4959212;28;20043;-76
2023/09/13 03:18:48;;;;;;;171.93;53.47;;;18.10;99.90;;;17.17;100.00;100854.25;4965581;28;20030;-77
2023/09/13 03:21:17;;;;;;;156.13;49.30;;;18.10;99.90;;;17.19;100.00;100849.66;4964236;28;20023;-78
2023/09/13 03:23:45;;;;;;;150.60;51.38;;;18.10;99.90;;;17.27;100.00;100840.25;4954386;28;20046;-80
2023/09/13 03:26:19;;;;;;;133.88;45.40;;;18.20;99.90;;;17.30;100.00;100840.03;4969319;28;20035;-80
2023/09/13 03:28:48;;;;;;;137.38;47.70;;;18.20;99.90;;;17.39;100.00;100842.03;4953685;28;20026;-80
2023/09/13 03:31:22;;;;;;;134.35;46.03;;;18.30;99.90;;;17.44;100.00;100818.59;4970503;28;20404;-80
2023/09/13 03:33:50;;;;;;;97.03;39.88;;;18.30;99.90;;;17.42;100.00;100815.19;4979137;23;20086;-79
2023/09/13 03:36:17;;;;;;;128.48;46.30;;;18.30;99.90;;;17.45;100.00;100811.44;4972815;28;20038;-79
2023/09/13 03:38:46;;;;;;;150.40;49.33;;;18.30;99.90;;;17.46;100.00;100795.38;4973778;28;20026;-80
2023/09/13 03:41:16;;;;;;;100.50;40.95;;;18.30;99.90;;;17.45;100.00;100787.47;4959825;28;20106;-78
2023/09/13 03:43:43;;;;;;;115.65;43.83;;;;;;;17.43;100.00;100776.97;4971604;28;20089;-79
2023/09/13 03:46:09;;;;;;;126.50;45.03;;;18.30;99.90;;;17.40;100.00;100774.53;4973638;28;20154;-79
2023/09/13 03:48:37;;;;;;;107.68;41.53;;;18.20;99.90;;;17.39;100.00;100779.00;4973345;28;20525;-81
2023/09/13 03:51:07;;;;;;;120.32;42.83;;;18.30;99.90;;;17.38;100.00;100782.59;4975335;28;20541;-79
2023/09/13 03:53:34;;;;;;;106.90;40.58;;;18.20;99.90;;;17.37;100.00;100786.25;4972252;28;20048;-80
2023/09/13 03:56:01;;;;;;;99.82;37.90;;;18.20;99.90;;;17.38;100.00;100777.28;4974541;28;20034;-79
2023/09/13 03:58:29;;;;;;;129.48;43.25;;;18.20;99.90;;;17.40;100.00;100775.38;4974224;28;20102;-78
2023/09/13 04:00:55;;;;;;;104.05;40.47;;;18.20;99.90;;;17.35;100.00;100772.22;4974121;28;20037;-78
2023/09/13 04:03:22;;;;;;;92.65;37.50;;;18.20;99.90;;;17.32;100.00;100777.78;4954729;28;20066;-78
2023/09/13 04:05:47;;;;;;;103.97;40.13;;;18.20;99.90;;;17.33;100.00;100767.97;4958134;28;20524;-79
2023/09/13 04:08:13;;;;;;;93.55;38.17;;;18.10;99.90;;;17.32;100.00;100772.44;4972701;28;20047;-79
2023/09/13 04:10:39;;;;;;;91.22;35.42;;;18.20;99.90;;;17.31;100.00;100776.06;4973067;28;20061;-78
2023/09/13 04:13:05;;;;;;;101.53;37.97;;;18.10;99.90;;;17.30;100.00;100774.38;4973168;28;20038;-79
2023/09/13 04:15:33;;;;;;;120.20;42.08;;;18.10;99.90;;;17.32;100.00;100779.56;4973925;28;20101;-79
2023/09/13 04:17:58;;;;;;;97.80;39.53;;;18.10;99.90;;;17.33;100.00;100776.78;4958622;28;20047;-78
2023/09/13 04:20:24;;;;;;;128.48;40.53;;;18.10;99.90;;;17.29;100.00;100777.97;4991312;28;20027;-79
2023/09/13 04:22:50;;;;;;;113.28;40.50;;;18.10;99.90;;;17.17;100.00;100779.75;4958051;28;20042;-78
2023/09/13 04:25:16;;;;;;;125.80;40.47;;;18.10;99.90;;;17.22;100.00;100780.25;4974185;28;20393;-79
2023/09/13 04:27:46;;;;;;;102.50;38.60;;;18.10;99.90;;;17.26;100.00;100772.91;4974953;28;20113;-79
2023/09/13 04:30:14;;;;;;;167.95;45.58;;;18.10;99.90;;;17.22;100.00;100760.78;4975536;28;20086;-78
2023/09/13 04:32:40;;;;;;;121.38;41.53;;;18.00;99.90;;;17.06;100.00;100744.25;4975415;28;20034;-78
2023/09/13 04:35:07;;;;;;;180.75;48.28;;;18.00;99.90;;;17.00;100.00;100735.75;4959734;28;20370;-78
2023/09/13 04:37:33;;;;;;;122.38;43.33;;;18.00;99.90;;;17.02;100.00;100717.03;4976490;28;20030;-79
2023/09/13 04:39:59;;;;;;;133.40;44.30;;;17.90;99.90;;;16.97;100.00;100705.88;4979919;28;20046;-78
2023/09/13 04:42:25;;;;;;;131.18;44.38;;;17.90;99.90;;;16.99;100.00;100701.28;4978340;28;20027;-78
2023/09/13 04:44:50;;;;;;;133.82;45.35;;;17.90;99.90;;;17.01;100.00;100694.03;4974628;28;20086;-79
2023/09/13 04:47:22;;;;;;;120.97;42.10;;;17.90;99.90;;;16.96;100.00;100686.41;4980813;28;20408;-80
2023/09/13 04:49:48;;;;;;;103.18;36.38;;;17.90;99.90;;;16.87;100.00;100665.81;4979838;28;20423;-79
2023/09/13 04:52:13;;;;;;;126.38;42.40;;;17.80;99.90;;;16.83;100.00;100648.38;4980991;28;20026;-79
2023/09/13 04:54:39;;;;;;;105.28;38.35;;;17.80;99.90;;;16.87;100.00;100651.66;4977484;28;20038;-79
2023/09/13 04:57:05;;;;;;;110.45;39.45;;;17.80;99.90;;;16.89;100.00;100647.06;4962209;28;20412;-79
2023/09/13 04:59:45;;;;;;;117.47;42.65;;;17.90;99.90;;;16.95;100.00;100631.53;4981111;28;20045;-79
2023/09/13 05:02:18;;;;;;;116.00;41.15;;;17.90;99.90;;;16.98;100.00;100618.00;4992124;28;20122;-79
2023/09/13 05:04:44;;;;;;;133.45;45.25;;;17.90;99.90;;;17.02;100.00;100589.34;4962696;28;20027;-79
2023/09/13 05:07:10;;;;;;;125.47;40.65;;;17.90;99.90;;;16.97;100.00;100559.59;4975680;28;20034;-79
2023/09/13 05:09:37;;;;;;;108.13;39.42;;;17.90;99.90;;;16.97;100.00;100517.03;4976503;28;20027;-78
2023/09/13 05:12:06;;;;;;;87.07;32.50;;;17.90;99.90;;;16.91;100.00;100478.47;4978840;28;20062;-78
2023/09/13 05:14:36;;;;;;;81.13;28.98;;;17.90;99.90;;;16.88;100.00;100468.06;4977919;28;20038;-79
2023/09/13 05:17:02;;;;;;;78.63;30.63;;;17.80;99.90;;;16.83;100.00;100456.09;4978380;28;20061;-79
2023/09/13 05:19:28;;;;;;;62.42;25.80;;;17.80;99.90;;;16.75;100.00;100464.63;4977373;28;20034;-78
2023/09/13 05:21:53;;;;;;;42.60;18.48;;;17.80;99.90;;;16.76;100.00;100476.94;4977919;28;20500;-79
2023/09/13 05:24:22;;;;;;;62.28;27.38;;;17.90;99.90;;;16.84;100.00;100505.63;4977440;28;20038;-77
2023/09/13 05:26:48;;;;;;;54.33;26.13;;;17.90;99.90;;;16.86;100.00;100533.81;4993850;28;20504;-78
2023/09/13 05:29:14;;;;;;;54.60;25.60;;;18.00;99.90;;;16.95;100.00;100556.19;4976728;28;20038;-79
2023/09/13 05:31:39;;;;;;;53.28;25.23;;;18.00;99.90;;;17.05;100.00;100577.63;4976403;28;20049;-77
2023/09/13 05:34:05;;;;;;;52.83;26.05;;;18.00;99.90;;;17.14;100.00;100588.41;4975219;28;20047;-78
2023/09/13 05:36:31;;;;;;;54.00;26.92;;;18.10;99.90;;;17.14;100.00;100593.72;4976965;28;20054;-78
2023/09/13 05:38:56;;;;;;;52.95;25.15;;;18.10;99.90;;;17.22;100.00;100601.13;4972923;28;20078;-78
2023/09/13 05:41:23;;;;;;;64.13;28.95;;;18.70;99.90;;;17.30;100.00;100620.03;4978979;28;20035;-78
2023/09/13 05:43:48;;;;;;;44.83;24.15;;;18.20;99.90;;;17.37;100.00;100620.41;4960169;28;20523;-78
2023/09/13 05:46:16;;;;;;;56.13;26.30;;;18.20;99.90;;;17.37;100.00;100625.72;4977169;28;20039;-78
2023/09/13 05:48:42;;;;;;;59.70;26.08;;;18.30;99.90;;;17.45;100.00;100615.34;4975106;28;20018;-78
2023/09/13 05:51:07;;;;;;;53.60;24.20;;;18.30;99.90;;;17.46;100.00;100619.69;4958585;28;20392;-78
2023/09/13 05:53:33;;;;;;;39.47;20.70;;;18.40;99.90;;;17.52;100.00;100629.03;4977091;28;20034;-77
2023/09/13 05:55:59;;;;;;;42.85;21.48;;;18.40;99.90;;;17.55;100.00;100634.09;4959736;28;20559;-77
2023/09/13 05:58:25;;;;;;;51.72;23.67;;;;;;;17.66;100.00;100651.91;4976852;28;20038;-78
2023/09/13 06:00:59;;;;;;;45.13;21.25;;;18.50;99.90;;;17.70;100.00;100643.56;4976398;28;20034;-78
2023/09/13 06:03:24;;;;;;;54.95;24.63;;;18.50;99.90;;;17.77;100.00;100638.59;4973206;28;20575;-78
2023/09/13 06:05:51;;;;;;;45.70;21.85;;;18.60;99.90;;;17.81;100.00;100642.72;4974674;28;20158;-78
2023/09/13 06:08:17;;;;;;;41.85;20.60;;;18.60;99.90;;;17.88;100.00;100645.78;4959810;28;20051;-77
2023/09/13 06:10:45;;;;;;;35.10;18.83;;;18.70;99.90;;;17.93;100.00;100649.78;4975874;28;20094;-78
2023/09/13 06:13:10;;;;;;;40.58;20.63;;;18.70;99.90;;;17.96;100.00;100657.53;4946027;28;20055;-78
2023/09/13 06:15:36;;;;;;;44.83;21.13;;;18.70;99.90;;;17.99;100.00;100657.28;4939068;29;20039;-77
2023/09/13 06:18:02;;;;;;;37.08;18.70;;;18.80;99.90;;;18.03;100.00;100655.22;4957409;28;20038;-78
2023/09/13 06:20:28;;;;;;;31.33;18.08;;;18.80;99.90;;;18.07;100.00;100666.50;4940941;29;20071;-77
2023/09/13 06:22:54;;;;;;;32.72;17.83;;;18.80;99.90;;;18.10;100.00;100666.22;4925587;28;20031;-78
2023/09/13 06:25:20;;;;;;;36.85;18.77;;;18.90;99.90;;;18.12;100.00;100670.50;4939309;29;20027;-78
2023/09/13 06:27:46;;;;;;;36.03;19.05;;;18.90;99.90;;;18.15;100.00;100667.56;4923864;29;20497;-78
2023/09/13 06:30:15;;;;;;;33.63;19.48;;;18.90;99.90;;;18.19;100.00;100665.53;4939134;29;20039;-78
2023/09/13 06:32:42;;;;;;;54.42;22.92;;;19.00;99.90;;;18.22;100.00;100675.94;4940482;29;20066;-78
2023/09/13 06:35:13;;;;;;;30.92;17.98;;;19.00;99.90;;;18.24;100.00;100668.66;4938951;29;20031;-78
2023/09/13 06:37:39;;;;;;;28.30;16.38;;;19.00;99.90;;;18.24;100.00;100666.84;4955700;28;20069;-78
2023/09/13 06:40:07;;;;;;;32.90;17.15;;;19.00;99.90;;;18.27;100.00;100673.72;4942132;29;20031;-79
2023/09/13 06:42:33;;;;;;;29.05;17.08;;;19.10;99.90;;;18.32;100.00;100676.06;4940819;29;20085;-78
2023/09/13 06:44:59;;;;;;;28.15;16.83;;;19.10;99.90;;;18.35;100.00;100671.31;4954977;29;20504;-77
2023/09/13 06:47:28;;;;;;;31.98;17.00;;;19.10;99.90;;;18.40;100.00;100676.25;4933412;29;20033;-79
2023/09/13 06:49:54;;;;;;;34.38;17.25;;;19.20;99.90;;;18.43;100.00;100673.38;4940948;29;20031;-79
2023/09/13 06:52:20;;;;;;;36.05;15.95;;;19.20;99.90;;;18.48;100.00;100678.31;4940714;29;20039;-78
2023/09/13 06:54:46;;;;;;;25.60;15.57;;;19.20;99.90;;;18.50;100.00;100674.56;4939524;28;20042;-78
2023/09/13 06:57:12;;;;;;;27.25;15.98;;;19.30;99.90;;;18.54;100.00;100680.50;4940979;29;20157;-78
2023/09/13 06:59:39;;;;;;;26.88;15.38;;;19.30;99.90;;;18.53;100.00;100673.47;4940647;29;20036;-77
2023/09/13 07:02:05;;;;;;;32.40;17.00;;;19.30;99.90;;;18.60;100.00;100680.00;4941834;29;20599;-79
2023/09/13 07:04:30;;;;;;;25.15;15.30;;;19.40;99.90;;;18.65;100.00;100677.81;4954909;28;20031;-77
2023/09/13 07:06:56;;;;;;;23.92;14.43;;;19.40;99.90;;;18.71;100.00;100684.47;4940159;29;20042;-77
2023/09/13 07:09:22;;;;;;;30.27;16.30;;;19.40;99.90;;;18.77;100.00;100681.31;4941660;29;20027;-78
2023/09/13 07:11:47;;;;;;;24.70;13.68;;;19.50;99.90;;;18.83;100.00;100687.03;4940221;29;20030;-78
2023/09/13 07:14:13;;;;;;;22.73;14.63;;;19.60;99.90;;;18.88;100.00;100681.31;4939818;29;20394;-78
2023/09/13 07:16:39;;;;;;;32.80;16.42;;;19.60;99.90;;;18.94;100.00;100683.47;4941133;29;20045;-77
2023/09/13 07:19:04;;;;;;;28.33;15.65;;;19.70;99.90;;;18.99;100.00;100681.25;4925588;29;20037;-78
2023/09/13 07:21:30;;;;;;;34.75;16.73;;;19.70;99.90;;;19.03;100.00;100687.19;4956234;28;20066;-77
2023/09/13 07:23:56;;;;;;;25.63;14.65;;;19.80;99.90;;;19.08;100.00;100689.47;4957085;28;20499;-78
2023/09/13 07:26:22;;;;;;;29.17;13.75;;;19.80;99.90;;;19.08;100.00;100684.97;4940389;29;20066;-78
2023/09/13 07:28:47;;;;;;;26.27;13.43;;;19.80;99.90;;;19.04;100.00;100678.19;4957233;29;20809;-78
2023/09/13 07:31:13;;;;;;;23.42;13.57;;;19.80;99.90;;;19.08;100.00;100679.66;4940719;29;20059;-78
2023/09/13 07:33:39;;;;;;;33.03;16.48;;;19.80;99.90;;;19.11;100.00;100684.72;4938610;29;20078;-78
2023/09/13 07:36:05;;;;;;;31.40;15.50;;;19.80;99.90;;;19.03;100.00;100693.38;4940637;29;20472;-78
2023/09/13 07:38:31;;;;;;;29.15;15.82;;;19.80;99.90;;;19.09;100.00;100691.16;4938490;29;20067;-79
2023/09/13 07:40:57;;;;;;;29.73;13.85;;;19.90;99.90;;;19.15;100.00;100696.00;4939427;29;20031;-78
2023/09/13 07:43:22;;;;;;;23.65;13.52;;;19.90;99.90;;;19.20;100.00;100699.97;4941206;29;20035;-78
2023/09/13 07:45:50;;;;;;;28.25;14.75;;;20.00;99.90;;;19.30;100.00;100700.03;4957073;28;21263;-78
2023/09/13 07:48:16;;;;;;;22.65;12.95;;;20.00;99.90;;;19.34;100.00;100706.81;4939608;29;20031;-77
2023/09/13 07:50:42;;;;;;;24.17;13.70;;;20.10;99.90;;;19.41;100.00;100709.81;4941653;29;20038;-78
2023/09/13 07:53:08;;;;;;;23.08;13.10;;;20.10;99.90;;;19.44;100.00;100704.25;4940865;29;20028;-77
2023/09/13 07:55:34;;;;;;;29.77;15.88;;;20.20;99.90;;;19.45;100.00;100704.09;4937840;29;21337;-79
2023/09/13 07:58:01;;;;;;;35.20;18.05;;;20.20;99.90;;;19.52;100.00;100703.59;4939171;29;20035;-79
2023/09/13 08:00:26;;;;;;;34.97;18.00;;;20.20;99.90;;;19.56;100.00;100702.34;4922977;29;20031;-78
2023/09/13 08:02:52;;;;;;;35.22;17.33;;;20.30;99.90;;;19.61;100.00;100710.81;4939305;29;20035;-78
2023/09/13 08:05:18;;;;;;;32.15;16.50;;;20.30;99.90;;;19.69;100.00;100711.00;4938823;29;20167;-77
2023/09/13 08:07:45;;;;;;;24.33;13.60;;;20.40;99.90;;;19.72;100.00;100716.13;4921383;29;20513;-79
2023/09/13 08:10:11;;;;;;;18.98;10.73;;;20.40;99.90;;;19.65;100.00;100714.91;4938009;29;20066;-78
2023/09/13 08:12:38;;;;;;;12.30;6.95;;;20.40;99.90;;;19.71;100.00;100722.44;4957434;28;20023;-77
2023/09/13 08:15:07;;;;;;;9.55;5.55;;;20.40;99.90;;;19.66;100.00;100722.81;4938407;29;20130;-78
2023/09/13 08:17:35;;;;;;;10.45;7.10;;;20.40;99.90;;;19.65;100.00;100725.59;4940360;29;20097;-78
2023/09/13 08:20:04;;;;;;;10.07;6.65;;;20.40;99.90;;;19.59;100.00;100728.78;4941079;29;20397;-77
2023/09/13 08:22:30;;;;;;;8.63;5.38;;;20.30;99.90;;;19.54;100.00;100733.69;4940341;29;20038;-78
2023/09/13 08:24:56;;;;;;;7.15;4.30;;;20.20;99.90;;;19.30;100.00;100731.25;4936011;29;20023;-76
2023/09/13 08:27:24;;;;;;;5.88;2.83;;;20.10;99.90;;;19.18;100.00;100738.44;4938760;29;20033;-76
2023/09/13 08:29:50;;;;;;;4.13;2.80;;;20.00;99.90;;;19.02;100.00;100733.53;4939291;29;20036;-76
2023/09/13 08:32:16;;;;;;;4.40;2.78;;;19.80;99.90;;;18.76;100.00;100738.28;4937248;29;20493;-78
2023/09/13 08:34:41;;;;;;;3.45;3.03;;;19.70;99.90;;;18.69;100.00;100739.75;4937296;29;20042;-78
2023/09/13 08:37:07;;;;;;;4.22;3.20;;;19.60;99.90;;;18.61;100.00;100735.03;4938101;29;20417;-77
2023/09/13 08:39:33;;;;;;;6.30;4.30;;;19.50;99.90;;;18.52;100.00;100736.59;4951518;29;20055;-77
2023/09/13 08:41:59;;;;;;;6.38;4.07;;;19.50;99.90;;;18.60;100.00;100741.34;4953127;28;20027;-77
2023/09/13 08:44:26;;;;;;;9.70;4.80;;;19.50;99.90;;;18.63;100.00;100739.25;4937967;29;20051;-78
2023/09/13 08:46:59;;;;;;;9.80;4.72;;;19.50;99.90;;;18.58;100.00;100746.78;4937869;29;20027;-78
2023/09/13 08:49:26;;;;;;;8.20;5.60;;;19.50;99.90;;;18.56;100.00;100746.06;4937062;29;20031;-78
2023/09/13 08:51:53;;;;;;;10.05;6.15;;;19.50;99.90;;;18.56;100.00;100745.22;4937053;29;20043;-78
2023/09/13 08:54:22;;;;;;;8.38;6.15;;;19.50;99.90;;;18.58;100.00;100744.13;4954089;28;20070;-78
2023/09/13 08:56:47;;;;;;;10.98;6.43;;;19.50;99.90;;;18.67;100.00;100752.38;4940981;29;20030;-78
2023/09/13 08:59:17;;;;;;;11.68;7.03;;;19.50;99.90;;;18.62;100.00;100752.75;4939664;29;20086;-78
2023/09/13 09:01:48;;;;;;;10.20;7.10;;;19.50;99.90;;;18.74;100.00;100754.41;4923503;29;20595;-77
2023/09/13 09:04:17;;;;;;;8.63;6.15;;;19.60;99.90;;;18.82;100.00;100767.16;4951611;28;20493;-78
2023/09/13 09:06:44;;;;;;;9.05;6.22;;;19.70;99.90;;;18.88;100.00;100768.47;4921762;29;20039;-78
2023/09/13 09:09:18;;;;;;;9.63;6.85;;;19.70;99.90;;;18.98;100.00;100764.09;4951424;28;20066;-77
2023/09/13 09:11:51;;;;;;;13.75;7.35;;;19.80;99.90;;;18.92;100.00;100773.47;4939806;29;20023;-78
2023/09/13 09:14:22;;;;;;;10.07;6.70;;;19.80;99.90;;;19.03;100.00;100770.75;4940232;29;20023;-77
2023/09/13 09:16:52;;;;;;;13.57;7.88;;;19.80;99.90;;;18.95;100.00;100767.03;4922259;29;20031;-78
2023/09/13 09:19:19;;;;;;;11.57;7.10;;;19.90;99.90;;;19.09;100.00;100763.22;4936505;29;20493;-77
2023/09/13 09:21:44;;;;;;;8.73;5.65;;;19.90;99.90;;;19.10;100.00;100756.91;4938915;29;20047;-78
2023/09/13 09:24:10;;;;;;;6.82;3.00;;;19.90;99.90;;;19.12;100.00;100754.97;4938121;29;20054;-77
2023/09/13 09:26:36;;;;;;;6.78;3.35;;;19.90;99.90;;;19.11;100.00;100755.94;4939643;29;20125;-78
2023/09/13 09:29:14;;;;;;;3.83;2.70;;;19.90;99.90;;;19.12;100.00;100750.47;4941957;29;20499;-78
2023/09/13 09:31:40;;;;;;;6.60;3.65;;;19.90;99.90;;;19.15;100.00;100752.88;4955148;29;20074;-78
2023/09/13 09:34:10;;;;;;;7.40;3.47;;;19.90;99.90;;;19.15;100.00;100752.03;4939966;29;20054;-77
2023/09/13 09:36:46;;;;;;;6.63;2.90;;;19.90;99.90;;;19.10;100.00;100755.09;4922339;29;20039;-77
2023/09/13 09:39:15;;;;;;;5.88;3.53;;;19.90;99.90;;;19.14;100.00;100747.69;4922258;29;20039;-79
2023/09/13 09:41:41;;;;;;;8.35;3.42;;;20.00;99.90;;;19.34;100.00;100754.03;4938147;29;20039;-79
2023/09/13 09:44:13;;;;;;;5.30;3.03;;;20.00;99.90;;;19.17;100.00;100755.44;4952950;28;20107;-78
2023/09/13 09:46:39;;;;;;;4.25;2.70;;;20.00;99.90;;;19.09;100.00;100755.22;4938726;29;20043;-79
2023/09/13 09:49:07;;;;;;;5.50;3.25;;;19.90;99.90;;;19.08;100.00;100762.38;4938632;29;20034;-79
2023/09/13 09:51:34;;;;;;;4.78;2.67;;;20.00;99.90;;;19.16;100.00;100761.75;4936820;29;20160;-78
2023/09/13 09:54:00;;;;;;;11.80;4.00;;;20.10;99.90;;;19.33;100.00;100757.66;4937164;29;20543;-78